עמוד ראשי
METAR-TAF:

METAR-TAF

שדות תעופה :

Tena, אקוודור

קו רוחב: 01-03-35S, קו אורך: 77-35-00W, גובה: 376מטר

תצפית מזג אוויר נוכחית

הדו"ח נערך לפני 5 שעות ו 14דקות, בשעה 21:00 UTC
רוח 4קשר מכיוון צפון-מזרח
טמפרטורת 26 צלסיוס
לחות 89%
לחץ 1011 hPa
ראות 10 קילומטר או יותר
עננים פזורים בגובה 2300רגל
עננים פזורים בגובה 4000רגל
עננים בינוניים בגובה 10000רגל
ממטרים במרחב

METAR: SEJD 202100Z 05004KT 9999 VCSH SCT023 SCT040 BKN100 26/24 Q1011 RMK A2987

זמן: 21:14 (02:14 UTC)


TAF: חסר

תצפיות ותחזיות מזג אוויר לגבי יותר מ- 4,000 שדות תעופה ברחבי העולם. דוחות METAR ו- TAF.

התחנות הזמינות מסומנות בנקודות צהובות ואדומות על גבי המפה.

העבר את העכבר לנקודה הצבעונית על מנת לראות את שם התחנה.

לאחר מכן, לחץ כדי לראות את תוכן ואת תחזיות מזג האוויר.

כדי לשנות את המפה: לחץ על הכפתורים הירוקים עם הפלוס השחור כדי להתקרב; על הכפתור הירוק עם המקף כדי להתרחק; או בחיצים הירוקים למפות סמוכות.


METAR-TAF: